createdAt,value
2022-08-30T00:01:05.421Z,0.85
2022-08-30T00:03:46.596Z,0.85
2022-08-30T00:06:15.779Z,0.90
2022-08-30T00:08:43.497Z,0.90
2022-08-30T00:11:13.275Z,0.80
2022-08-30T00:13:42.770Z,0.90
2022-08-30T00:16:10.155Z,0.85
2022-08-30T00:18:37.105Z,0.90
2022-08-30T00:21:05.164Z,1.00
2022-08-30T00:23:32.480Z,1.00
2022-08-30T00:25:59.841Z,0.90
2022-08-30T00:28:26.428Z,1.10
2022-08-30T00:30:53.250Z,0.73
2022-08-30T00:33:20.094Z,0.80
2022-08-30T00:35:46.686Z,1.00
2022-08-30T00:38:14.061Z,0.80
2022-08-30T00:40:44.303Z,0.80
2022-08-30T00:43:20.080Z,0.90
2022-08-30T00:45:47.208Z,0.70
2022-08-30T00:48:14.040Z,1.02
2022-08-30T00:50:46.545Z,0.80
2022-08-30T00:53:20.108Z,0.93
2022-08-30T00:55:48.951Z,0.70
2022-08-30T00:58:21.760Z,0.70
2022-08-30T01:00:51.795Z,0.70
2022-08-30T01:03:18.565Z,0.80
2022-08-30T01:05:46.414Z,0.90
2022-08-30T01:08:13.033Z,0.80
2022-08-30T01:10:39.904Z,0.73
2022-08-30T01:13:06.629Z,0.80
2022-08-30T01:15:34.423Z,0.85
2022-08-30T01:18:02.254Z,0.85
2022-08-30T01:20:49.979Z,0.80
2022-08-30T01:23:19.739Z,0.65
2022-08-30T01:25:50.450Z,0.70
2022-08-30T01:28:28.892Z,0.70
2022-08-30T01:30:56.329Z,0.70
2022-08-30T01:33:23.122Z,0.77
2022-08-30T01:36:02.562Z,0.60
2022-08-30T01:38:38.348Z,0.80
2022-08-30T01:41:13.535Z,0.70
2022-08-30T01:43:40.431Z,0.60
2022-08-30T01:46:08.255Z,0.60
2022-08-30T01:48:35.021Z,0.90
2022-08-30T01:51:02.361Z,0.73
2022-08-30T01:53:29.131Z,0.70
2022-08-30T01:55:56.133Z,0.70
2022-08-30T01:58:23.363Z,0.60
2022-08-30T02:00:51.398Z,0.70
2022-08-30T02:03:18.303Z,0.60
2022-08-30T02:05:45.361Z,0.80
2022-08-30T02:08:11.964Z,0.70
2022-08-30T02:10:38.582Z,0.80
2022-08-30T02:13:05.288Z,0.60
2022-08-30T02:15:41.221Z,0.80
2022-08-30T02:18:10.784Z,0.68
2022-08-30T02:20:39.577Z,0.68
2022-08-30T02:23:06.327Z,0.80
2022-08-30T02:25:33.007Z,0.70
2022-08-30T02:27:59.612Z,0.50
2022-08-30T02:30:26.984Z,0.70
2022-08-30T02:32:53.602Z,0.60
2022-08-30T02:35:20.241Z,0.53
2022-08-30T02:37:46.830Z,0.60
2022-08-30T02:40:13.527Z,0.70
2022-08-30T02:42:41.706Z,0.70
2022-08-30T02:45:08.892Z,0.55
2022-08-30T02:47:37.171Z,0.60
2022-08-30T02:50:05.820Z,0.73
2022-08-30T02:52:32.524Z,0.60
2022-08-30T02:54:59.797Z,0.70
2022-08-30T02:57:26.426Z,0.68
2022-08-30T02:59:53.493Z,0.70
2022-08-30T03:02:22.193Z,0.70
2022-08-30T03:04:49.298Z,0.73
2022-08-30T03:07:16.354Z,0.60
2022-08-30T03:09:43.033Z,0.60
2022-08-30T03:12:10.320Z,0.70
2022-08-30T03:14:38.339Z,0.63
2022-08-30T03:17:07.086Z,0.80
2022-08-30T03:19:39.502Z,0.63
2022-08-30T03:22:06.926Z,0.60
2022-08-30T03:24:34.647Z,0.63
2022-08-30T03:27:01.265Z,0.50
2022-08-30T03:29:29.721Z,0.60
2022-08-30T03:31:57.534Z,0.60
2022-08-30T03:34:25.382Z,0.65
2022-08-30T03:36:53.549Z,0.70
2022-08-30T03:39:22.690Z,0.70
2022-08-30T03:41:49.539Z,0.60
2022-08-30T03:44:16.298Z,0.60
2022-08-30T03:46:42.966Z,0.50
2022-08-30T03:49:09.700Z,0.63
2022-08-30T03:51:36.298Z,0.60
2022-08-30T03:54:03.016Z,0.60
2022-08-30T03:56:29.712Z,0.70
2022-08-30T03:58:56.312Z,0.60
2022-08-30T04:01:23.004Z,0.70
2022-08-30T04:03:50.276Z,0.60
2022-08-30T04:06:16.915Z,0.70
2022-08-30T04:08:44.828Z,0.60
2022-08-30T04:11:12.754Z,0.70
2022-08-30T04:13:39.366Z,0.60
2022-08-30T04:16:06.223Z,0.60
2022-08-30T04:18:33.042Z,0.55
2022-08-30T04:20:59.652Z,0.57
2022-08-30T04:23:26.266Z,0.47
2022-08-30T04:25:52.882Z,0.57
2022-08-30T04:28:19.520Z,0.60
2022-08-30T04:30:46.638Z,0.50
2022-08-30T04:33:15.098Z,0.50
2022-08-30T04:35:44.262Z,0.50
2022-08-30T04:38:11.873Z,0.50
2022-08-30T04:40:38.918Z,0.52
2022-08-30T04:43:05.562Z,0.50
2022-08-30T04:45:32.334Z,0.50
2022-08-30T04:47:59.019Z,0.80
2022-08-30T04:50:26.131Z,0.60
2022-08-30T04:52:52.734Z,0.57
2022-08-30T04:55:20.503Z,0.50
2022-08-30T04:57:47.499Z,0.60
2022-08-30T05:00:14.582Z,0.68
2022-08-30T05:02:41.487Z,0.47
2022-08-30T05:05:28.481Z,0.70
2022-08-30T05:07:55.327Z,0.65
2022-08-30T05:10:22.110Z,0.60
2022-08-30T05:12:48.737Z,0.70
2022-08-30T05:15:15.444Z,0.70
2022-08-30T05:17:42.461Z,0.65
2022-08-30T05:20:11.241Z,0.60
2022-08-30T05:22:39.952Z,0.60
2022-08-30T05:25:08.274Z,0.80
2022-08-30T05:27:37.200Z,0.60
2022-08-30T05:30:06.322Z,0.60
2022-08-30T05:32:33.062Z,0.75
2022-08-30T05:34:59.670Z,0.75
2022-08-30T05:37:26.305Z,0.90
2022-08-30T05:39:53.332Z,0.80
2022-08-30T05:42:20.197Z,0.55
2022-08-30T05:44:52.783Z,0.65
2022-08-30T05:47:20.062Z,0.70
2022-08-30T05:49:47.279Z,0.80
2022-08-30T05:52:15.522Z,0.70
2022-08-30T05:54:42.270Z,0.60
2022-08-30T05:57:08.863Z,0.70
2022-08-30T05:59:35.517Z,0.70
2022-08-30T06:02:02.149Z,0.80
2022-08-30T06:04:29.848Z,0.60
2022-08-30T06:06:56.473Z,0.75
2022-08-30T06:09:23.070Z,0.55
2022-08-30T06:11:49.687Z,0.75
2022-08-30T06:14:16.834Z,0.70
2022-08-30T06:16:47.160Z,0.83
2022-08-30T06:19:15.408Z,0.88
2022-08-30T06:21:43.263Z,0.88
2022-08-30T06:24:11.374Z,0.70
2022-08-30T06:26:41.452Z,0.90
2022-08-30T06:29:09.307Z,0.70
2022-08-30T06:31:36.141Z,0.80
2022-08-30T06:34:03.551Z,0.80
2022-08-30T06:36:30.394Z,0.80
2022-08-30T06:38:58.900Z,0.70
2022-08-30T06:41:28.430Z,0.80
2022-08-30T06:43:56.116Z,0.90
2022-08-30T06:46:32.619Z,0.75
2022-08-30T06:49:00.400Z,0.80
2022-08-30T06:51:30.550Z,0.93
2022-08-30T06:53:58.797Z,0.70
2022-08-30T06:56:27.609Z,0.75
2022-08-30T06:58:55.001Z,0.70
2022-08-30T07:01:25.597Z,1.00
2022-08-30T07:03:53.620Z,0.80
2022-08-30T07:06:20.784Z,1.10
2022-08-30T07:08:48.076Z,1.00
2022-08-30T07:11:15.013Z,0.82
2022-08-30T07:13:41.662Z,0.90
2022-08-30T07:16:15.064Z,1.00
2022-08-30T07:18:50.837Z,0.70
2022-08-30T07:21:32.099Z,1.00
2022-08-30T07:23:59.839Z,0.70
2022-08-30T07:26:35.479Z,0.85
2022-08-30T07:29:03.251Z,0.80
2022-08-30T07:31:30.387Z,0.70
2022-08-30T07:33:57.396Z,1.00
2022-08-30T07:36:25.036Z,1.00
2022-08-30T07:38:52.483Z,0.80
2022-08-30T07:41:22.643Z,0.90
2022-08-30T07:43:49.374Z,1.10
2022-08-30T07:46:16.471Z,0.90
2022-08-30T07:48:44.222Z,0.90
2022-08-30T07:51:13.182Z,1.10
2022-08-30T07:53:40.193Z,1.08
2022-08-30T07:56:07.426Z,0.80
2022-08-30T07:58:34.624Z,1.02
2022-08-30T08:01:02.073Z,1.00
2022-08-30T08:03:29.813Z,0.88
2022-08-30T08:05:57.213Z,1.05
2022-08-30T08:08:23.886Z,1.00
2022-08-30T08:10:50.533Z,0.93
2022-08-30T08:13:17.170Z,1.15
2022-08-30T08:15:44.270Z,0.95
2022-08-30T08:18:11.070Z,1.10
2022-08-30T08:20:37.836Z,0.97
2022-08-30T08:23:04.833Z,1.10
2022-08-30T08:25:31.709Z,1.08
2022-08-30T08:27:59.134Z,0.80
2022-08-30T08:30:25.797Z,1.00
2022-08-30T08:32:52.929Z,1.00
2022-08-30T08:35:20.209Z,1.00
2022-08-30T08:37:46.874Z,0.93
2022-08-30T08:40:18.670Z,1.10
2022-08-30T08:43:18.815Z,1.05
2022-08-30T08:46:17.531Z,0.90
2022-08-30T08:49:00.002Z,1.23
2022-08-30T08:51:51.030Z,1.17
2022-08-30T08:54:27.698Z,1.33
2022-08-30T08:56:54.715Z,1.33
2022-08-30T08:59:21.421Z,1.23
2022-08-30T09:01:50.791Z,1.25
2022-08-30T09:04:24.715Z,1.30
2022-08-30T09:07:00.895Z,1.23
2022-08-30T09:09:34.903Z,1.27
2022-08-30T09:12:01.999Z,1.40
2022-08-30T09:14:34.465Z,1.13
2022-08-30T09:17:10.863Z,1.23
2022-08-30T09:19:59.070Z,1.27
2022-08-30T09:22:40.579Z,1.10
2022-08-30T09:25:20.497Z,1.20
2022-08-30T09:27:49.676Z,1.40
2022-08-30T09:30:19.971Z,1.00
2022-08-30T09:32:58.428Z,1.17
2022-08-30T09:35:36.963Z,1.33
2022-08-30T09:38:06.838Z,1.10
2022-08-30T09:40:42.548Z,1.48
2022-08-30T09:43:17.994Z,1.33
2022-08-30T09:45:47.705Z,1.23
2022-08-30T09:48:33.127Z,1.40
2022-08-30T09:51:11.935Z,1.27
2022-08-30T09:54:19.224Z,1.20
2022-08-30T09:57:11.753Z,1.77
2022-08-30T09:59:51.413Z,1.48
2022-08-30T10:02:37.229Z,1.60
2022-08-30T10:05:15.793Z,1.70
2022-08-30T10:07:46.457Z,1.38
2022-08-30T10:10:31.471Z,1.10
2022-08-30T10:12:58.001Z,1.58
2022-08-30T10:15:41.066Z,1.33
2022-08-30T10:18:16.699Z,1.40
2022-08-30T10:21:07.164Z,1.55
2022-08-30T10:23:42.961Z,1.60
2022-08-30T10:26:42.776Z,1.50
2022-08-30T10:29:16.622Z,1.40
2022-08-30T10:31:53.166Z,1.40
2022-08-30T10:34:35.502Z,1.30
2022-08-30T10:37:13.653Z,1.52
2022-08-30T10:39:56.430Z,1.70
2022-08-30T10:42:27.098Z,1.42
2022-08-30T10:45:10.500Z,1.30
2022-08-30T10:48:41.722Z,1.50
2022-08-30T10:51:40.447Z,1.35
2022-08-30T10:54:16.427Z,1.42
2022-08-30T10:56:48.570Z,1.52
2022-08-30T10:59:18.385Z,1.40
2022-08-30T11:01:57.996Z,1.40
2022-08-30T11:04:33.889Z,1.40
2022-08-30T11:07:18.537Z,1.30
2022-08-30T11:10:00.286Z,1.40
2022-08-30T11:12:37.652Z,1.43
2022-08-30T11:15:26.216Z,1.60
2022-08-30T11:18:04.219Z,1.50
2022-08-30T11:20:34.570Z,1.30
2022-08-30T11:23:27.611Z,1.65
2022-08-30T11:26:03.778Z,1.70
2022-08-30T11:28:36.796Z,1.23
2022-08-30T11:31:35.201Z,1.33
2022-08-30T11:34:02.755Z,1.67
2022-08-30T11:36:37.552Z,1.27
2022-08-30T11:39:10.181Z,1.20
2022-08-30T11:41:47.969Z,1.85
2022-08-30T11:44:28.986Z,1.67
2022-08-30T11:46:59.208Z,1.30
2022-08-30T11:49:50.230Z,1.90
2022-08-30T11:52:56.877Z,1.80
2022-08-30T11:55:38.075Z,1.92
2022-08-30T11:58:30.167Z,1.90
2022-08-30T12:01:50.175Z,1.92
2022-08-30T12:04:34.685Z,1.60
2022-08-30T12:07:04.890Z,1.90
2022-08-30T12:09:34.278Z,1.45
2022-08-30T12:12:10.927Z,1.85
2022-08-30T12:14:41.207Z,1.35
2022-08-30T12:17:36.161Z,1.20
2022-08-30T12:20:05.980Z,1.10
2022-08-30T12:22:37.781Z,1.27
2022-08-30T12:25:16.921Z,1.10
2022-08-30T12:27:43.579Z,1.13
2022-08-30T12:30:10.819Z,1.10
2022-08-30T12:32:47.398Z,1.23
2022-08-30T12:35:23.845Z,1.20
2022-08-30T12:38:00.587Z,1.20
2022-08-30T12:40:31.097Z,1.00
2022-08-30T12:43:04.781Z,1.10
2022-08-30T12:45:44.182Z,1.20
2022-08-30T12:48:17.429Z,1.35
2022-08-30T12:51:07.306Z,1.35
2022-08-30T12:53:39.301Z,1.33
2022-08-30T12:56:15.413Z,1.50
2022-08-30T12:58:50.475Z,1.00
2022-08-30T13:01:32.382Z,1.33
2022-08-30T13:04:22.942Z,1.40
2022-08-30T13:06:52.236Z,1.33
2022-08-30T13:09:38.403Z,1.38
2022-08-30T13:12:09.788Z,1.10
2022-08-30T13:14:43.663Z,1.08
2022-08-30T13:17:19.122Z,1.17
2022-08-30T13:20:00.177Z,0.93
2022-08-30T13:22:57.510Z,1.00
2022-08-30T13:25:24.130Z,1.00
2022-08-30T13:27:50.795Z,0.90
2022-08-30T13:30:17.582Z,0.93
2022-08-30T13:32:45.272Z,1.15
2022-08-30T13:35:12.462Z,0.80
2022-08-30T13:37:47.298Z,1.10
2022-08-30T13:40:18.565Z,1.00
2022-08-30T13:42:45.369Z,1.00
2022-08-30T13:48:01.737Z,1.10
2022-08-30T13:50:28.404Z,1.00
2022-08-30T13:52:57.125Z,0.95
2022-08-30T13:55:23.953Z,0.75
2022-08-30T13:57:54.549Z,0.68
2022-08-30T14:00:23.504Z,0.75
2022-08-30T14:02:55.947Z,0.90
2022-08-30T14:05:49.240Z,0.95
2022-08-30T14:11:11.860Z,0.90
2022-08-30T14:14:14.787Z,0.63
2022-08-30T14:16:27.991Z,0.90
2022-08-30T14:18:56.151Z,0.70
2022-08-30T14:21:24.519Z,0.73
2022-08-30T14:23:52.664Z,0.70
2022-08-30T14:26:26.384Z,0.80
2022-08-30T14:28:59.252Z,0.80
2022-08-30T14:31:25.990Z,0.65
2022-08-30T14:33:53.077Z,0.60
2022-08-30T14:36:19.981Z,0.73
2022-08-30T14:38:48.482Z,0.75
2022-08-30T14:41:15.485Z,0.73
2022-08-30T14:43:42.206Z,0.60
2022-08-30T14:46:10.599Z,0.80
2022-08-30T14:48:38.714Z,0.60
2022-08-30T14:51:17.284Z,0.75
2022-08-30T14:53:45.106Z,0.60
2022-08-30T14:56:16.411Z,0.60
2022-08-30T14:58:43.491Z,0.85
2022-08-30T15:01:12.451Z,0.60
2022-08-30T15:03:40.690Z,0.93
2022-08-30T15:06:08.182Z,0.83
2022-08-30T15:08:36.737Z,0.60
2022-08-30T15:11:12.059Z,0.70
2022-08-30T15:13:40.216Z,0.70
2022-08-30T15:16:15.861Z,0.80
2022-08-30T15:18:42.554Z,0.60
2022-08-30T15:21:10.954Z,0.80
2022-08-30T15:23:39.268Z,0.80
2022-08-30T15:26:07.094Z,0.77
2022-08-30T15:28:34.834Z,0.90
2022-08-30T15:31:08.261Z,0.70
2022-08-30T15:33:35.726Z,0.80
2022-08-30T15:36:03.325Z,0.60
2022-08-30T15:38:31.137Z,0.60
2022-08-30T15:41:02.167Z,0.70
2022-08-30T15:43:28.911Z,0.70
2022-08-30T15:45:56.458Z,0.80
2022-08-30T15:48:23.839Z,0.60
2022-08-30T15:50:58.211Z,0.70
2022-08-30T15:53:24.806Z,0.70
2022-08-30T15:55:51.773Z,0.80
2022-08-30T15:58:19.012Z,0.60
2022-08-30T16:00:45.983Z,0.70
2022-08-30T16:03:13.002Z,0.68
2022-08-30T16:05:39.703Z,0.70
2022-08-30T16:08:06.345Z,0.70
2022-08-30T16:10:33.033Z,0.70
2022-08-30T16:13:01.630Z,0.63
2022-08-30T16:15:29.572Z,0.70
2022-08-30T16:17:56.282Z,0.60
2022-08-30T16:20:24.754Z,0.50
2022-08-30T16:22:52.095Z,0.50
2022-08-30T16:25:18.713Z,0.55
2022-08-30T16:27:45.398Z,0.50
2022-08-30T16:30:13.090Z,0.60
2022-08-30T16:32:39.957Z,0.40
2022-08-30T16:35:07.898Z,0.50
2022-08-30T16:37:34.639Z,0.60
2022-08-30T16:40:01.599Z,0.50
2022-08-30T16:42:28.375Z,0.52
2022-08-30T16:44:55.669Z,0.70
2022-08-30T16:47:22.440Z,0.60
2022-08-30T16:49:49.570Z,0.70
2022-08-30T16:52:17.130Z,0.70
2022-08-30T16:54:45.080Z,0.70
2022-08-30T16:57:12.325Z,0.60
2022-08-30T16:59:39.023Z,0.50
2022-08-30T17:02:05.707Z,0.60
2022-08-30T17:04:32.773Z,0.57
2022-08-30T17:06:59.434Z,0.73
2022-08-30T17:09:26.061Z,0.70
2022-08-30T17:11:53.046Z,0.50
2022-08-30T17:14:28.203Z,0.70
2022-08-30T17:17:00.697Z,0.52
2022-08-30T17:19:28.622Z,0.70
2022-08-30T17:21:56.278Z,0.60
2022-08-30T17:24:22.966Z,0.40
2022-08-30T17:26:51.370Z,0.60
2022-08-30T17:29:18.166Z,0.50
2022-08-30T17:31:50.926Z,0.50
2022-08-30T17:34:21.214Z,0.50
2022-08-30T17:36:49.870Z,0.40
2022-08-30T17:39:16.610Z,0.50
2022-08-30T17:41:50.239Z,0.50
2022-08-30T17:44:19.107Z,0.50
2022-08-30T17:46:45.804Z,0.40
2022-08-30T17:49:13.095Z,0.52
2022-08-30T17:51:42.978Z,0.50
2022-08-30T17:54:12.731Z,0.50
2022-08-30T17:56:41.118Z,0.40
2022-08-30T17:59:09.946Z,0.50
2022-08-30T18:01:37.339Z,0.60
2022-08-30T18:04:06.081Z,0.60
2022-08-30T18:06:51.769Z,0.50
2022-08-30T18:09:18.450Z,0.40
2022-08-30T18:11:45.050Z,0.40
2022-08-30T18:14:12.894Z,0.40
2022-08-30T18:16:49.636Z,0.50
2022-08-30T18:19:21.358Z,0.50
2022-08-30T18:21:48.186Z,0.43
2022-08-30T18:24:16.659Z,0.50
2022-08-30T18:26:43.375Z,0.40
2022-08-30T18:29:10.931Z,0.43
2022-08-30T18:31:37.660Z,0.50
2022-08-30T18:34:04.476Z,0.52
2022-08-30T18:36:31.147Z,0.50
2022-08-30T18:38:58.320Z,0.40
2022-08-30T18:41:26.004Z,0.43
2022-08-30T18:44:11.016Z,0.52
2022-08-30T18:47:31.858Z,0.60
2022-08-30T18:49:26.866Z,0.50
2022-08-30T18:51:54.171Z,0.50
2022-08-30T18:54:20.992Z,0.40
2022-08-30T18:56:47.998Z,0.40
2022-08-30T18:59:15.647Z,0.50
2022-08-30T19:01:42.631Z,0.40
2022-08-30T19:04:11.435Z,0.30
2022-08-30T19:06:57.075Z,0.40
2022-08-30T19:09:23.741Z,0.45
2022-08-30T19:11:50.484Z,0.35
2022-08-30T19:14:19.133Z,0.30
2022-08-30T19:16:45.762Z,0.40
2022-08-30T19:19:12.979Z,0.40
2022-08-30T19:21:39.730Z,0.30
2022-08-30T19:24:06.779Z,0.40
2022-08-30T19:26:35.637Z,0.30
2022-08-30T19:29:02.378Z,0.50
2022-08-30T19:31:29.026Z,0.47
2022-08-30T19:33:56.645Z,0.40
2022-08-30T19:36:24.363Z,0.57
2022-08-30T19:38:51.981Z,0.40
2022-08-30T19:41:22.015Z,0.50
2022-08-30T19:43:49.827Z,0.43
2022-08-30T19:46:16.486Z,0.40
2022-08-30T19:48:43.261Z,0.40
2022-08-30T19:51:14.532Z,0.50
2022-08-30T19:53:41.934Z,0.40
2022-08-30T19:56:08.734Z,0.47
2022-08-30T19:58:35.394Z,0.40
2022-08-30T20:01:12.296Z,0.47
2022-08-30T20:03:51.924Z,0.50
2022-08-30T20:06:19.650Z,0.40
2022-08-30T20:08:47.496Z,0.30
2022-08-30T20:11:17.105Z,0.50
2022-08-30T20:13:44.858Z,0.50
2022-08-30T20:16:13.187Z,0.50
2022-08-30T20:18:41.632Z,0.40
2022-08-30T20:21:13.518Z,0.40
2022-08-30T20:23:42.026Z,0.40
2022-08-30T20:26:10.425Z,0.40
2022-08-30T20:28:37.790Z,0.30
2022-08-30T20:31:06.293Z,0.40
2022-08-30T20:33:37.464Z,0.40
2022-08-30T20:36:06.418Z,0.43
2022-08-30T20:38:33.150Z,0.40
2022-08-30T20:41:01.123Z,0.50
2022-08-30T20:43:29.853Z,0.30
2022-08-30T20:45:57.045Z,0.40
2022-08-30T20:48:28.541Z,0.35
2022-08-30T20:50:55.160Z,0.40
2022-08-30T20:53:21.750Z,0.40
2022-08-30T20:55:48.359Z,0.40
2022-08-30T20:58:15.371Z,0.50
2022-08-30T21:00:46.017Z,0.35
2022-08-30T21:03:26.092Z,0.50
2022-08-30T21:05:55.527Z,0.50
2022-08-30T21:08:22.334Z,0.40
2022-08-30T21:10:49.154Z,0.40
2022-08-30T21:13:15.809Z,0.43
2022-08-30T21:15:45.978Z,0.47
2022-08-30T21:18:14.300Z,0.30
2022-08-30T21:20:41.678Z,0.40
2022-08-30T21:23:08.716Z,0.40
2022-08-30T21:25:41.178Z,0.40
2022-08-30T21:28:08.056Z,0.40
2022-08-30T21:30:35.806Z,0.30
2022-08-30T21:33:04.047Z,0.40
2022-08-30T21:35:49.305Z,0.40
2022-08-30T21:38:16.696Z,0.40
2022-08-30T21:40:43.793Z,0.40
2022-08-30T21:43:10.788Z,0.50
2022-08-30T21:45:39.026Z,0.40
2022-08-30T21:48:06.221Z,0.32
2022-08-30T21:50:33.570Z,0.40
2022-08-30T21:53:01.052Z,0.40
2022-08-30T21:55:27.726Z,0.40
2022-08-30T21:57:55.174Z,0.30
2022-08-30T22:00:22.128Z,0.47
2022-08-30T22:02:49.231Z,0.40
2022-08-30T22:05:20.255Z,0.40
2022-08-30T22:07:46.976Z,0.40
2022-08-30T22:10:13.662Z,0.50
2022-08-30T22:12:41.480Z,0.30
2022-08-30T22:15:09.345Z,0.40
2022-08-30T22:17:36.189Z,0.40
2022-08-30T22:20:05.785Z,0.40
2022-08-30T22:22:33.815Z,0.35
2022-08-30T22:25:00.423Z,0.40
2022-08-30T22:27:27.070Z,0.30
2022-08-30T22:29:53.698Z,0.50
2022-08-30T22:32:21.116Z,0.33
2022-08-30T22:34:47.949Z,0.40
2022-08-30T22:37:14.560Z,0.30
2022-08-30T22:39:41.162Z,0.40
2022-08-30T22:42:09.816Z,0.43
2022-08-30T22:44:36.495Z,0.40
2022-08-30T22:47:03.203Z,0.50
2022-08-30T22:49:29.848Z,0.50
2022-08-30T22:51:56.440Z,0.40
2022-08-30T22:54:23.082Z,0.40
2022-08-30T22:56:49.976Z,0.40
2022-08-30T22:59:16.630Z,0.30
2022-08-30T23:01:43.439Z,0.40
2022-08-30T23:04:11.773Z,0.40
2022-08-30T23:06:39.223Z,0.35
2022-08-30T23:09:07.005Z,0.40
2022-08-30T23:11:34.032Z,0.50
2022-08-30T23:14:02.090Z,0.40
2022-08-30T23:16:29.024Z,0.40
2022-08-30T23:18:55.876Z,0.40
2022-08-30T23:21:26.496Z,0.40
2022-08-30T23:24:13.029Z,0.50
2022-08-30T23:26:59.396Z,0.40
2022-08-30T23:29:45.536Z,0.30
2022-08-30T23:32:31.346Z,0.35
2022-08-30T23:35:16.435Z,0.30
2022-08-30T23:38:01.600Z,0.43
2022-08-30T23:40:47.110Z,0.50
2022-08-30T23:43:32.296Z,0.40
2022-08-30T23:46:19.167Z,0.40
2022-08-30T23:49:06.188Z,0.37
2022-08-30T23:51:52.202Z,0.40
2022-08-30T23:54:37.469Z,0.40
2022-08-30T23:57:23.370Z,0.40
